LIRF/FCO METAR and TAF weather

Enter ICAO airport designator
Station Type Date Time Source
LIRF METAR 2021/09/25 02:50 UTC NOAA

LIRF 250250Z 08006KT CAVOK 17/15 Q1019 NOSIG


Station Type Date Time Source
LIRF Decoded METAR 2021/09/25 02:50 UTC NOAA

Roma Fiumicino, Italy (LIRF) 41-48N 012-14E 3M
Sep 24, 2021 - 10:50 PM EDT / 2021.09.25 0250 UTC
Wind: from the E (080 degrees) at 7 MPH (6 KT):0
Visibility: greater than 7 mile(s):0
Temperature: 62 F (17 C)
Dew Point: 59 F (15 C)
Relative Humidity: 88%
Pressure (altimeter): 30.09 in. Hg (1019 hPa)
ob: LIRF 250250Z 08006KT CAVOK 17/15 Q1019 NOSIG
cycle: 3

Station Type Date Time Source
LIRF TAF 2021/09/24 18:26 UTC NOAA

TAF LIRF 241700Z 2418/2524 05007KT CAVOK
BECMG 2509/2511 18010KT
BECMG 2517/2519 06006KT

Example: see airport list